sensor_id;sensor_type;location;lat;lon;timestamp;P1;durP1;ratioP1;P2;durP2;ratioP2
7487;SDS011;3785;52.260;4.728;2022-07-24T00:01:03;10.77;;;8.18;;
7487;SDS011;3785;52.260;4.728;2022-07-24T00:04:23;11.43;;;8.07;;
7487;SDS011;3785;52.260;4.728;2022-07-24T00:07:44;11.13;;;8.95;;
7487;SDS011;3785;52.260;4.728;2022-07-24T00:11:05;12.73;;;8.52;;
7487;SDS011;3785;52.260;4.728;2022-07-24T00:14:25;11.38;;;8.57;;
7487;SDS011;3785;52.260;4.728;2022-07-24T00:17:46;16.02;;;8.98;;
7487;SDS011;3785;52.260;4.728;2022-07-24T00:21:07;11.23;;;8.95;;
7487;SDS011;3785;52.260;4.728;2022-07-24T00:24:28;11.77;;;8.35;;
7487;SDS011;3785;52.260;4.728;2022-07-24T00:27:48;12.68;;;8.85;;
7487;SDS011;3785;52.260;4.728;2022-07-24T00:31:09;14.13;;;9.52;;
7487;SDS011;3785;52.260;4.728;2022-07-24T00:34:30;12.98;;;9.38;;
7487;SDS011;3785;52.260;4.728;2022-07-24T00:37:50;12.40;;;9.38;;
7487;SDS011;3785;52.260;4.728;2022-07-24T00:41:11;11.65;;;8.82;;
7487;SDS011;3785;52.260;4.728;2022-07-24T00:44:31;10.65;;;8.13;;
7487;SDS011;3785;52.260;4.728;2022-07-24T00:47:52;10.65;;;8.30;;
7487;SDS011;3785;52.260;4.728;2022-07-24T00:51:13;12.05;;;7.68;;
7487;SDS011;3785;52.260;4.728;2022-07-24T00:54:33;9.18;;;7.57;;
7487;SDS011;3785;52.260;4.728;2022-07-24T00:57:54;9.50;;;7.22;;
7487;SDS011;3785;52.260;4.728;2022-07-24T01:01:15;10.90;;;7.38;;
7487;SDS011;3785;52.260;4.728;2022-07-24T01:04:37;10.90;;;7.32;;
7487;SDS011;3785;52.260;4.728;2022-07-24T01:07:58;11.35;;;6.60;;
7487;SDS011;3785;52.260;4.728;2022-07-24T01:11:19;10.68;;;6.25;;
7487;SDS011;3785;52.260;4.728;2022-07-24T01:14:40;7.85;;;5.82;;
7487;SDS011;3785;52.260;4.728;2022-07-24T01:18:01;9.50;;;5.75;;
7487;SDS011;3785;52.260;4.728;2022-07-24T01:21:22;8.85;;;5.88;;
7487;SDS011;3785;52.260;4.728;2022-07-24T01:24:42;8.70;;;5.85;;
7487;SDS011;3785;52.260;4.728;2022-07-24T01:28:03;7.53;;;5.50;;
7487;SDS011;3785;52.260;4.728;2022-07-24T01:31:24;8.45;;;6.13;;
7487;SDS011;3785;52.260;4.728;2022-07-24T01:34:44;6.68;;;5.32;;
7487;SDS011;3785;52.260;4.728;2022-07-24T01:38:05;5.72;;;4.93;;
7487;SDS011;3785;52.260;4.728;2022-07-24T01:41:25;6.70;;;5.22;;
7487;SDS011;3785;52.260;4.728;2022-07-24T01:44:46;8.70;;;5.80;;
7487;SDS011;3785;52.260;4.728;2022-07-24T01:48:07;7.63;;;5.40;;
7487;SDS011;3785;52.260;4.728;2022-07-24T01:51:28;7.78;;;5.88;;
7487;SDS011;3785;52.260;4.728;2022-07-24T01:54:48;11.25;;;6.20;;
7487;SDS011;3785;52.260;4.728;2022-07-24T01:58:09;8.23;;;5.97;;
7487;SDS011;3785;52.260;4.728;2022-07-24T02:01:29;9.40;;;6.35;;
7487;SDS011;3785;52.260;4.728;2022-07-24T02:04:50;10.10;;;7.22;;
7487;SDS011;3785;52.260;4.728;2022-07-24T02:08:10;11.60;;;6.88;;
7487;SDS011;3785;52.260;4.728;2022-07-24T02:11:31;10.63;;;6.70;;
7487;SDS011;3785;52.260;4.728;2022-07-24T02:14:52;11.25;;;7.75;;
7487;SDS011;3785;52.260;4.728;2022-07-24T02:18:12;11.90;;;7.78;;
7487;SDS011;3785;52.260;4.728;2022-07-24T02:21:33;9.70;;;6.80;;
7487;SDS011;3785;52.260;4.728;2022-07-24T02:24:53;15.73;;;8.50;;
7487;SDS011;3785;52.260;4.728;2022-07-24T02:28:14;13.77;;;9.45;;
7487;SDS011;3785;52.260;4.728;2022-07-24T02:31:35;13.60;;;9.13;;
7487;SDS011;3785;52.260;4.728;2022-07-24T02:34:56;13.45;;;9.25;;
7487;SDS011;3785;52.260;4.728;2022-07-24T02:38:17;11.88;;;8.63;;
7487;SDS011;3785;52.260;4.728;2022-07-24T02:41:37;12.07;;;8.18;;
7487;SDS011;3785;52.260;4.728;2022-07-24T02:44:58;12.50;;;7.53;;
7487;SDS011;3785;52.260;4.728;2022-07-24T02:48:18;12.05;;;8.60;;
7487;SDS011;3785;52.260;4.728;2022-07-24T02:51:39;11.23;;;7.82;;
7487;SDS011;3785;52.260;4.728;2022-07-24T02:55:00;9.88;;;7.53;;
7487;SDS011;3785;52.260;4.728;2022-07-24T02:58:20;10.88;;;7.13;;
7487;SDS011;3785;52.260;4.728;2022-07-24T03:01:41;11.23;;;7.75;;
7487;SDS011;3785;52.260;4.728;2022-07-24T03:05:02;10.45;;;6.75;;
7487;SDS011;3785;52.260;4.728;2022-07-24T03:08:24;7.88;;;6.03;;
7487;SDS011;3785;52.260;4.728;2022-07-24T03:11:44;12.38;;;6.82;;
7487;SDS011;3785;52.260;4.728;2022-07-24T03:15:05;9.85;;;7.07;;
7487;SDS011;3785;52.260;4.728;2022-07-24T03:18:26;7.35;;;5.75;;
7487;SDS011;3785;52.260;4.728;2022-07-24T03:21:47;9.20;;;6.13;;
7487;SDS011;3785;52.260;4.728;2022-07-24T03:25:07;9.82;;;5.60;;
7487;SDS011;3785;52.260;4.728;2022-07-24T03:28:29;10.80;;;6.07;;
7487;SDS011;3785;52.260;4.728;2022-07-24T03:31:49;7.68;;;5.78;;
7487;SDS011;3785;52.260;4.728;2022-07-24T03:35:10;7.40;;;5.13;;
7487;SDS011;3785;52.260;4.728;2022-07-24T03:38:30;7.60;;;5.10;;
7487;SDS011;3785;52.260;4.728;2022-07-24T03:41:51;7.38;;;5.30;;
7487;SDS011;3785;52.260;4.728;2022-07-24T03:45:12;6.63;;;4.57;;
7487;SDS011;3785;52.260;4.728;2022-07-24T03:48:32;9.23;;;4.85;;
7487;SDS011;3785;52.260;4.728;2022-07-24T03:51:53;6.78;;;4.70;;
7487;SDS011;3785;52.260;4.728;2022-07-24T03:55:13;5.60;;;3.90;;
7487;SDS011;3785;52.260;4.728;2022-07-24T03:58:34;6.40;;;4.10;;
7487;SDS011;3785;52.260;4.728;2022-07-24T04:01:55;6.18;;;4.22;;
7487;SDS011;3785;52.260;4.728;2022-07-24T04:05:15;5.55;;;3.92;;
7487;SDS011;3785;52.260;4.728;2022-07-24T04:08:36;7.38;;;3.78;;
7487;SDS011;3785;52.260;4.728;2022-07-24T04:11:57;6.05;;;4.18;;
7487;SDS011;3785;52.260;4.728;2022-07-24T04:15:17;5.90;;;4.50;;
7487;SDS011;3785;52.260;4.728;2022-07-24T04:18:38;6.88;;;4.25;;
7487;SDS011;3785;52.260;4.728;2022-07-24T04:21:59;6.00;;;4.38;;
7487;SDS011;3785;52.260;4.728;2022-07-24T04:25:20;7.88;;;4.50;;
7487;SDS011;3785;52.260;4.728;2022-07-24T04:28:40;5.57;;;4.13;;
7487;SDS011;3785;52.260;4.728;2022-07-24T04:32:02;4.70;;;3.60;;
7487;SDS011;3785;52.260;4.728;2022-07-24T04:35:22;6.45;;;4.22;;
7487;SDS011;3785;52.260;4.728;2022-07-24T04:38:43;5.15;;;3.90;;
7487;SDS011;3785;52.260;4.728;2022-07-24T04:42:04;5.05;;;3.80;;
7487;SDS011;3785;52.260;4.728;2022-07-24T04:45:24;5.53;;;4.03;;
7487;SDS011;3785;52.260;4.728;2022-07-24T04:48:45;5.82;;;3.50;;
7487;SDS011;3785;52.260;4.728;2022-07-24T04:52:05;6.13;;;3.70;;
7487;SDS011;3785;52.260;4.728;2022-07-24T04:55:26;5.70;;;4.03;;
7487;SDS011;3785;52.260;4.728;2022-07-24T04:58:47;6.13;;;3.58;;
7487;SDS011;3785;52.260;4.728;2022-07-24T05:02:07;5.38;;;3.40;;
7487;SDS011;3785;52.260;4.728;2022-07-24T05:05:28;4.80;;;3.53;;
7487;SDS011;3785;52.260;4.728;2022-07-24T05:08:48;5.10;;;3.47;;
7487;SDS011;3785;52.260;4.728;2022-07-24T05:12:09;9.95;;;3.90;;
7487;SDS011;3785;52.260;4.728;2022-07-24T05:15:30;5.88;;;3.58;;
7487;SDS011;3785;52.260;4.728;2022-07-24T05:18:50;4.97;;;3.35;;
7487;SDS011;3785;52.260;4.728;2022-07-24T05:22:11;5.18;;;3.67;;
7487;SDS011;3785;52.260;4.728;2022-07-24T05:25:31;3.97;;;3.28;;
7487;SDS011;3785;52.260;4.728;2022-07-24T05:28:52;6.18;;;3.47;;
7487;SDS011;3785;52.260;4.728;2022-07-24T05:32:13;6.18;;;3.30;;
7487;SDS011;3785;52.260;4.728;2022-07-24T05:35:33;6.78;;;3.85;;
7487;SDS011;3785;52.260;4.728;2022-07-24T05:38:54;4.88;;;3.53;;
7487;SDS011;3785;52.260;4.728;2022-07-24T05:42:16;4.32;;;3.03;;
7487;SDS011;3785;52.260;4.728;2022-07-24T05:45:36;5.75;;;3.70;;
7487;SDS011;3785;52.260;4.728;2022-07-24T05:48:57;6.07;;;3.35;;
7487;SDS011;3785;52.260;4.728;2022-07-24T05:52:17;4.13;;;3.00;;
7487;SDS011;3785;52.260;4.728;2022-07-24T05:55:38;4.28;;;3.17;;
7487;SDS011;3785;52.260;4.728;2022-07-24T05:58:58;4.80;;;2.67;;
7487;SDS011;3785;52.260;4.728;2022-07-24T06:02:19;4.05;;;2.60;;
7487;SDS011;3785;52.260;4.728;2022-07-24T06:05:40;3.45;;;2.72;;
7487;SDS011;3785;52.260;4.728;2022-07-24T06:09:00;3.95;;;2.88;;
7487;SDS011;3785;52.260;4.728;2022-07-24T06:12:21;4.60;;;3.05;;
7487;SDS011;3785;52.260;4.728;2022-07-24T06:15:42;4.72;;;2.60;;
7487;SDS011;3785;52.260;4.728;2022-07-24T06:19:02;3.17;;;2.40;;
7487;SDS011;3785;52.260;4.728;2022-07-24T06:22:23;3.47;;;2.50;;
7487;SDS011;3785;52.260;4.728;2022-07-24T06:25:43;3.70;;;2.70;;
7487;SDS011;3785;52.260;4.728;2022-07-24T06:29:04;4.10;;;2.20;;
7487;SDS011;3785;52.260;4.728;2022-07-24T06:32:24;3.53;;;2.10;;
7487;SDS011;3785;52.260;4.728;2022-07-24T06:35:45;3.25;;;2.13;;
7487;SDS011;3785;52.260;4.728;2022-07-24T06:39:06;2.22;;;1.73;;
7487;SDS011;3785;52.260;4.728;2022-07-24T06:42:26;2.50;;;1.77;;
7487;SDS011;3785;52.260;4.728;2022-07-24T06:45:47;4.70;;;1.85;;
7487;SDS011;3785;52.260;4.728;2022-07-24T06:49:07;2.72;;;1.55;;
7487;SDS011;3785;52.260;4.728;2022-07-24T06:52:28;3.42;;;2.00;;
7487;SDS011;3785;52.260;4.728;2022-07-24T06:55:49;2.17;;;1.67;;
7487;SDS011;3785;52.260;4.728;2022-07-24T06:59:13;2.97;;;1.67;;
7487;SDS011;3785;52.260;4.728;2022-07-24T07:02:34;2.63;;;1.45;;
7487;SDS011;3785;52.260;4.728;2022-07-24T07:05:54;4.18;;;1.83;;
7487;SDS011;3785;52.260;4.728;2022-07-24T07:09:15;3.40;;;1.73;;
7487;SDS011;3785;52.260;4.728;2022-07-24T07:12:36;2.65;;;1.80;;
7487;SDS011;3785;52.260;4.728;2022-07-24T07:15:56;2.50;;;1.45;;
7487;SDS011;3785;52.260;4.728;2022-07-24T07:19:17;2.30;;;1.38;;
7487;SDS011;3785;52.260;4.728;2022-07-24T07:22:38;2.50;;;1.50;;
7487;SDS011;3785;52.260;4.728;2022-07-24T07:25:59;2.10;;;1.30;;
7487;SDS011;3785;52.260;4.728;2022-07-24T07:29:20;2.15;;;1.48;;
7487;SDS011;3785;52.260;4.728;2022-07-24T07:32:40;2.53;;;1.50;;
7487;SDS011;3785;52.260;4.728;2022-07-24T07:36:01;2.80;;;1.88;;
7487;SDS011;3785;52.260;4.728;2022-07-24T07:39:21;2.85;;;1.70;;
7487;SDS011;3785;52.260;4.728;2022-07-24T07:42:42;3.17;;;1.45;;
7487;SDS011;3785;52.260;4.728;2022-07-24T07:46:03;2.58;;;1.42;;
7487;SDS011;3785;52.260;4.728;2022-07-24T07:49:24;1.83;;;1.42;;
7487;SDS011;3785;52.260;4.728;2022-07-24T07:52:44;1.90;;;1.35;;
7487;SDS011;3785;52.260;4.728;2022-07-24T07:56:05;2.33;;;1.60;;
7487;SDS011;3785;52.260;4.728;2022-07-24T07:59:25;1.98;;;1.40;;
7487;SDS011;3785;52.260;4.728;2022-07-24T08:02:46;4.03;;;1.63;;
7487;SDS011;3785;52.260;4.728;2022-07-24T08:06:07;2.42;;;1.65;;
7487;SDS011;3785;52.260;4.728;2022-07-24T08:09:27;2.35;;;1.38;;
7487;SDS011;3785;52.260;4.728;2022-07-24T08:12:48;2.25;;;1.20;;
7487;SDS011;3785;52.260;4.728;2022-07-24T08:16:08;2.03;;;1.48;;
7487;SDS011;3785;52.260;4.728;2022-07-24T08:19:29;1.75;;;1.02;;
7487;SDS011;3785;52.260;4.728;2022-07-24T08:22:49;2.67;;;1.33;;
7487;SDS011;3785;52.260;4.728;2022-07-24T08:26:10;1.90;;;1.40;;
7487;SDS011;3785;52.260;4.728;2022-07-24T08:29:31;1.83;;;1.15;;
7487;SDS011;3785;52.260;4.728;2022-07-24T08:32:52;1.73;;;1.20;;
7487;SDS011;3785;52.260;4.728;2022-07-24T08:36:13;2.53;;;1.20;;
7487;SDS011;3785;52.260;4.728;2022-07-24T08:39:33;2.03;;;1.02;;
7487;SDS011;3785;52.260;4.728;2022-07-24T08:42:54;1.73;;;1.30;;
7487;SDS011;3785;52.260;4.728;2022-07-24T08:46:15;2.50;;;1.10;;
7487;SDS011;3785;52.260;4.728;2022-07-24T08:49:38;2.47;;;1.27;;
7487;SDS011;3785;52.260;4.728;2022-07-24T08:52:59;1.95;;;1.13;;
7487;SDS011;3785;52.260;4.728;2022-07-24T08:56:23;3.20;;;2.05;;
7487;SDS011;3785;52.260;4.728;2022-07-24T08:59:43;1.40;;;1.00;;
7487;SDS011;3785;52.260;4.728;2022-07-24T09:03:04;1.55;;;1.10;;
7487;SDS011;3785;52.260;4.728;2022-07-24T09:06:25;2.20;;;1.33;;
7487;SDS011;3785;52.260;4.728;2022-07-24T09:13:30;2.03;;;1.40;;
7487;SDS011;3785;52.260;4.728;2022-07-24T09:17:15;3.05;;;1.35;;
7487;SDS011;3785;52.260;4.728;2022-07-24T09:20:37;1.38;;;1.10;;
7487;SDS011;3785;52.260;4.728;2022-07-24T09:23:58;1.75;;;1.20;;
7487;SDS011;3785;52.260;4.728;2022-07-24T09:27:22;1.73;;;1.15;;
7487;SDS011;3785;52.260;4.728;2022-07-24T09:30:43;2.38;;;1.20;;
7487;SDS011;3785;52.260;4.728;2022-07-24T09:34:08;2.10;;;1.35;;
7487;SDS011;3785;52.260;4.728;2022-07-24T09:37:29;1.80;;;1.20;;
7487;SDS011;3785;52.260;4.728;2022-07-24T09:40:50;1.50;;;1.10;;
7487;SDS011;3785;52.260;4.728;2022-07-24T09:44:12;2.05;;;1.40;;
7487;SDS011;3785;52.260;4.728;2022-07-24T09:47:34;2.40;;;1.38;;
7487;SDS011;3785;52.260;4.728;2022-07-24T09:50:55;2.13;;;1.10;;
7487;SDS011;3785;52.260;4.728;2022-07-24T09:54:31;3.80;;;1.20;;
7487;SDS011;3785;52.260;4.728;2022-07-24T09:58:02;2.20;;;1.20;;
7487;SDS011;3785;52.260;4.728;2022-07-24T10:01:39;2.00;;;1.23;;
7487;SDS011;3785;52.260;4.728;2022-07-24T10:05:04;2.20;;;1.23;;
7487;SDS011;3785;52.260;4.728;2022-07-24T10:08:26;2.10;;;1.50;;
7487;SDS011;3785;52.260;4.728;2022-07-24T10:11:47;1.92;;;1.00;;
7487;SDS011;3785;52.260;4.728;2022-07-24T10:15:10;2.20;;;1.30;;
7487;SDS011;3785;52.260;4.728;2022-07-24T10:19:04;2.53;;;1.05;;
7487;SDS011;3785;52.260;4.728;2022-07-24T10:22:19;2.10;;;1.25;;
7487;SDS011;3785;52.260;4.728;2022-07-24T10:25:52;2.05;;;1.10;;
7487;SDS011;3785;52.260;4.728;2022-07-24T10:29:24;2.80;;;1.30;;
7487;SDS011;3785;52.260;4.728;2022-07-24T10:32:44;2.17;;;1.20;;
7487;SDS011;3785;52.260;4.728;2022-07-24T10:36:12;2.40;;;1.17;;
7487;SDS011;3785;52.260;4.728;2022-07-24T10:39:38;1.67;;;1.20;;
7487;SDS011;3785;52.260;4.728;2022-07-24T10:46:29;1.73;;;1.30;;
7487;SDS011;3785;52.260;4.728;2022-07-24T10:49:50;1.88;;;1.20;;
7487;SDS011;3785;52.260;4.728;2022-07-24T10:53:19;2.30;;;1.08;;
7487;SDS011;3785;52.260;4.728;2022-07-24T10:56:41;2.08;;;1.20;;
7487;SDS011;3785;52.260;4.728;2022-07-24T11:00:25;2.13;;;1.30;;
7487;SDS011;3785;52.260;4.728;2022-07-24T11:03:50;1.65;;;1.00;;
7487;SDS011;3785;52.260;4.728;2022-07-24T11:07:11;2.50;;;1.38;;
7487;SDS011;3785;52.260;4.728;2022-07-24T11:10:51;2.15;;;1.30;;
7487;SDS011;3785;52.260;4.728;2022-07-24T11:14:13;2.03;;;0.95;;
7487;SDS011;3785;52.260;4.728;2022-07-24T11:18:12;3.00;;;1.05;;
7487;SDS011;3785;52.260;4.728;2022-07-24T11:21:34;2.13;;;1.20;;
7487;SDS011;3785;52.260;4.728;2022-07-24T11:25:07;2.10;;;1.17;;
7487;SDS011;3785;52.260;4.728;2022-07-24T11:28:32;1.65;;;1.20;;
7487;SDS011;3785;52.260;4.728;2022-07-24T11:32:00;1.58;;;1.08;;
7487;SDS011;3785;52.260;4.728;2022-07-24T11:35:34;1.73;;;1.23;;
7487;SDS011;3785;52.260;4.728;2022-07-24T11:38:56;2.22;;;1.20;;
7487;SDS011;3785;52.260;4.728;2022-07-24T11:42:16;1.83;;;1.10;;
7487;SDS011;3785;52.260;4.728;2022-07-24T11:45:38;1.67;;;1.10;;
7487;SDS011;3785;52.260;4.728;2022-07-24T11:49:03;1.95;;;1.42;;
7487;SDS011;3785;52.260;4.728;2022-07-24T11:52:25;3.72;;;1.60;;
7487;SDS011;3785;52.260;4.728;2022-07-24T11:56:01;2.05;;;1.50;;
7487;SDS011;3785;52.260;4.728;2022-07-24T11:59:27;2.40;;;1.35;;
7487;SDS011;3785;52.260;4.728;2022-07-24T12:02:51;2.08;;;1.30;;
7487;SDS011;3785;52.260;4.728;2022-07-24T12:06:14;3.17;;;1.38;;
7487;SDS011;3785;52.260;4.728;2022-07-24T12:13:11;1.60;;;1.27;;
7487;SDS011;3785;52.260;4.728;2022-07-24T12:16:32;2.00;;;1.50;;
7487;SDS011;3785;52.260;4.728;2022-07-24T12:19:53;2.28;;;1.40;;
7487;SDS011;3785;52.260;4.728;2022-07-24T12:23:16;2.60;;;1.30;;
7487;SDS011;3785;52.260;4.728;2022-07-24T12:30:29;2.47;;;1.63;;
7487;SDS011;3785;52.260;4.728;2022-07-24T12:33:54;2.63;;;1.33;;
7487;SDS011;3785;52.260;4.728;2022-07-24T12:37:16;2.00;;;1.30;;
7487;SDS011;3785;52.260;4.728;2022-07-24T12:40:38;2.42;;;1.60;;
7487;SDS011;3785;52.260;4.728;2022-07-24T12:43:59;1.90;;;1.40;;
7487;SDS011;3785;52.260;4.728;2022-07-24T12:47:22;2.40;;;1.38;;
7487;SDS011;3785;52.260;4.728;2022-07-24T12:54:44;1.98;;;1.30;;
7487;SDS011;3785;52.260;4.728;2022-07-24T12:58:06;2.70;;;1.65;;
7487;SDS011;3785;52.260;4.728;2022-07-24T13:01:28;2.47;;;1.48;;
7487;SDS011;3785;52.260;4.728;2022-07-24T13:05:04;3.08;;;1.52;;
7487;SDS011;3785;52.260;4.728;2022-07-24T13:08:24;2.83;;;1.50;;
7487;SDS011;3785;52.260;4.728;2022-07-24T13:11:45;2.03;;;1.40;;
7487;SDS011;3785;52.260;4.728;2022-07-24T13:15:07;1.85;;;1.30;;
7487;SDS011;3785;52.260;4.728;2022-07-24T13:18:28;2.85;;;1.27;;
7487;SDS011;3785;52.260;4.728;2022-07-24T13:21:49;2.67;;;1.38;;
7487;SDS011;3785;52.260;4.728;2022-07-24T13:25:09;2.22;;;1.20;;
7487;SDS011;3785;52.260;4.728;2022-07-24T13:28:30;1.83;;;1.30;;
7487;SDS011;3785;52.260;4.728;2022-07-24T13:31:50;2.28;;;1.48;;
7487;SDS011;3785;52.260;4.728;2022-07-24T13:35:11;2.72;;;1.38;;
7487;SDS011;3785;52.260;4.728;2022-07-24T13:38:31;1.92;;;1.10;;
7487;SDS011;3785;52.260;4.728;2022-07-24T13:41:52;2.05;;;1.20;;
7487;SDS011;3785;52.260;4.728;2022-07-24T13:45:13;2.65;;;1.30;;
7487;SDS011;3785;52.260;4.728;2022-07-24T13:48:33;1.90;;;1.45;;
7487;SDS011;3785;52.260;4.728;2022-07-24T13:51:54;1.73;;;1.27;;
7487;SDS011;3785;52.260;4.728;2022-07-24T13:55:15;1.60;;;1.30;;
7487;SDS011;3785;52.260;4.728;2022-07-24T13:58:35;1.38;;;1.08;;
7487;SDS011;3785;52.260;4.728;2022-07-24T14:01:57;2.00;;;1.13;;
7487;SDS011;3785;52.260;4.728;2022-07-24T14:05:18;2.50;;;1.13;;
7487;SDS011;3785;52.260;4.728;2022-07-24T14:08:39;2.10;;;1.52;;
7487;SDS011;3785;52.260;4.728;2022-07-24T14:12:01;2.15;;;1.40;;
7487;SDS011;3785;52.260;4.728;2022-07-24T14:15:22;2.38;;;1.52;;
7487;SDS011;3785;52.260;4.728;2022-07-24T14:18:43;2.65;;;1.33;;
7487;SDS011;3785;52.260;4.728;2022-07-24T14:22:03;2.80;;;1.55;;
7487;SDS011;3785;52.260;4.728;2022-07-24T14:25:24;2.42;;;1.50;;
7487;SDS011;3785;52.260;4.728;2022-07-24T14:28:45;2.10;;;1.30;;
7487;SDS011;3785;52.260;4.728;2022-07-24T14:32:05;3.50;;;1.33;;
7487;SDS011;3785;52.260;4.728;2022-07-24T14:35:26;2.90;;;1.35;;
7487;SDS011;3785;52.260;4.728;2022-07-24T14:38:47;2.00;;;1.48;;
7487;SDS011;3785;52.260;4.728;2022-07-24T14:42:07;4.10;;;1.50;;
7487;SDS011;3785;52.260;4.728;2022-07-24T14:45:29;1.80;;;1.20;;
7487;SDS011;3785;52.260;4.728;2022-07-24T14:48:49;1.70;;;1.25;;
7487;SDS011;3785;52.260;4.728;2022-07-24T14:52:10;1.60;;;1.13;;
7487;SDS011;3785;52.260;4.728;2022-07-24T14:55:31;1.42;;;1.05;;
7487;SDS011;3785;52.260;4.728;2022-07-24T14:58:51;2.67;;;1.50;;
7487;SDS011;3785;52.260;4.728;2022-07-24T15:02:12;2.38;;;1.10;;
7487;SDS011;3785;52.260;4.728;2022-07-24T15:05:32;2.17;;;1.25;;
7487;SDS011;3785;52.260;4.728;2022-07-24T15:08:53;2.42;;;1.38;;
7487;SDS011;3785;52.260;4.728;2022-07-24T15:12:13;1.60;;;1.13;;
7487;SDS011;3785;52.260;4.728;2022-07-24T15:15:34;2.88;;;1.23;;
7487;SDS011;3785;52.260;4.728;2022-07-24T15:18:55;1.98;;;1.30;;
7487;SDS011;3785;52.260;4.728;2022-07-24T15:22:15;1.80;;;1.40;;
7487;SDS011;3785;52.260;4.728;2022-07-24T15:25:36;2.25;;;1.20;;
7487;SDS011;3785;52.260;4.728;2022-07-24T15:28:56;2.88;;;1.23;;
7487;SDS011;3785;52.260;4.728;2022-07-24T15:32:17;2.78;;;1.13;;
7487;SDS011;3785;52.260;4.728;2022-07-24T15:35:37;2.78;;;1.20;;
7487;SDS011;3785;52.260;4.728;2022-07-24T15:38:58;1.80;;;1.15;;
7487;SDS011;3785;52.260;4.728;2022-07-24T15:42:18;2.22;;;1.20;;
7487;SDS011;3785;52.260;4.728;2022-07-24T15:45:39;2.22;;;1.38;;
7487;SDS011;3785;52.260;4.728;2022-07-24T15:49:00;2.00;;;1.40;;
7487;SDS011;3785;52.260;4.728;2022-07-24T15:52:23;2.05;;;1.25;;
7487;SDS011;3785;52.260;4.728;2022-07-24T15:55:44;1.55;;;1.08;;
7487;SDS011;3785;52.260;4.728;2022-07-24T15:59:04;1.80;;;1.10;;
7487;SDS011;3785;52.260;4.728;2022-07-24T16:02:26;1.70;;;1.17;;
7487;SDS011;3785;52.260;4.728;2022-07-24T16:05:46;1.65;;;1.17;;
7487;SDS011;3785;52.260;4.728;2022-07-24T16:09:07;1.30;;;1.00;;
7487;SDS011;3785;52.260;4.728;2022-07-24T16:12:27;1.30;;;1.00;;
7487;SDS011;3785;52.260;4.728;2022-07-24T16:15:48;1.70;;;1.20;;
7487;SDS011;3785;52.260;4.728;2022-07-24T16:19:09;3.35;;;1.20;;
7487;SDS011;3785;52.260;4.728;2022-07-24T16:22:29;2.33;;;1.30;;
7487;SDS011;3785;52.260;4.728;2022-07-24T16:25:50;1.60;;;1.02;;
7487;SDS011;3785;52.260;4.728;2022-07-24T16:29:11;1.70;;;1.20;;
7487;SDS011;3785;52.260;4.728;2022-07-24T16:32:31;1.63;;;1.10;;
7487;SDS011;3785;52.260;4.728;2022-07-24T16:35:52;2.20;;;1.10;;
7487;SDS011;3785;52.260;4.728;2022-07-24T16:39:12;1.48;;;1.10;;
7487;SDS011;3785;52.260;4.728;2022-07-24T16:42:33;1.85;;;1.02;;
7487;SDS011;3785;52.260;4.728;2022-07-24T16:45:53;1.50;;;0.90;;
7487;SDS011;3785;52.260;4.728;2022-07-24T16:49:14;1.45;;;1.10;;
7487;SDS011;3785;52.260;4.728;2022-07-24T16:52:35;2.45;;;1.45;;
7487;SDS011;3785;52.260;4.728;2022-07-24T16:55:55;1.85;;;1.27;;
7487;SDS011;3785;52.260;4.728;2022-07-24T16:59:16;2.53;;;1.42;;
7487;SDS011;3785;52.260;4.728;2022-07-24T17:02:37;1.88;;;1.10;;
7487;SDS011;3785;52.260;4.728;2022-07-24T17:05:57;1.50;;;1.02;;
7487;SDS011;3785;52.260;4.728;2022-07-24T17:09:18;1.80;;;1.10;;
7487;SDS011;3785;52.260;4.728;2022-07-24T17:12:39;1.70;;;1.13;;
7487;SDS011;3785;52.260;4.728;2022-07-24T17:15:59;1.65;;;1.00;;
7487;SDS011;3785;52.260;4.728;2022-07-24T17:19:20;1.73;;;1.20;;
7487;SDS011;3785;52.260;4.728;2022-07-24T17:22:42;2.03;;;1.45;;
7487;SDS011;3785;52.260;4.728;2022-07-24T17:26:03;1.60;;;1.20;;
7487;SDS011;3785;52.260;4.728;2022-07-24T17:29:23;2.90;;;1.27;;
7487;SDS011;3785;52.260;4.728;2022-07-24T17:32:44;2.42;;;1.27;;
7487;SDS011;3785;52.260;4.728;2022-07-24T17:36:04;3.25;;;1.50;;
7487;SDS011;3785;52.260;4.728;2022-07-24T17:39:26;2.28;;;1.60;;
7487;SDS011;3785;52.260;4.728;2022-07-24T17:42:47;2.88;;;1.90;;
7487;SDS011;3785;52.260;4.728;2022-07-24T17:46:08;2.45;;;1.85;;
7487;SDS011;3785;52.260;4.728;2022-07-24T17:49:29;3.15;;;1.83;;
7487;SDS011;3785;52.260;4.728;2022-07-24T17:52:50;2.90;;;1.95;;
7487;SDS011;3785;52.260;4.728;2022-07-24T17:56:10;3.42;;;1.95;;
7487;SDS011;3785;52.260;4.728;2022-07-24T17:59:31;3.92;;;2.05;;
7487;SDS011;3785;52.260;4.728;2022-07-24T18:02:53;2.40;;;1.80;;
7487;SDS011;3785;52.260;4.728;2022-07-24T18:06:13;2.80;;;1.80;;
7487;SDS011;3785;52.260;4.728;2022-07-24T18:09:34;3.58;;;1.83;;
7487;SDS011;3785;52.260;4.728;2022-07-24T18:12:55;3.72;;;1.75;;
7487;SDS011;3785;52.260;4.728;2022-07-24T18:16:15;3.55;;;1.90;;
7487;SDS011;3785;52.260;4.728;2022-07-24T18:19:36;2.72;;;1.77;;
7487;SDS011;3785;52.260;4.728;2022-07-24T18:22:57;2.97;;;2.00;;
7487;SDS011;3785;52.260;4.728;2022-07-24T18:26:17;2.17;;;1.58;;
7487;SDS011;3785;52.260;4.728;2022-07-24T18:29:38;2.50;;;1.67;;
7487;SDS011;3785;52.260;4.728;2022-07-24T18:32:58;2.90;;;1.98;;
7487;SDS011;3785;52.260;4.728;2022-07-24T18:36:19;2.35;;;1.45;;
7487;SDS011;3785;52.260;4.728;2022-07-24T18:39:40;3.30;;;1.83;;
7487;SDS011;3785;52.260;4.728;2022-07-24T18:43:00;2.60;;;1.83;;
7487;SDS011;3785;52.260;4.728;2022-07-24T18:46:21;2.60;;;1.65;;
7487;SDS011;3785;52.260;4.728;2022-07-24T18:49:42;2.75;;;1.70;;
7487;SDS011;3785;52.260;4.728;2022-07-24T18:53:03;2.30;;;1.52;;
7487;SDS011;3785;52.260;4.728;2022-07-24T18:56:24;2.83;;;1.73;;
7487;SDS011;3785;52.260;4.728;2022-07-24T18:59:45;2.90;;;1.88;;
7487;SDS011;3785;52.260;4.728;2022-07-24T19:03:05;3.03;;;1.90;;
7487;SDS011;3785;52.260;4.728;2022-07-24T19:06:26;2.95;;;1.50;;
7487;SDS011;3785;52.260;4.728;2022-07-24T19:09:48;3.13;;;1.70;;
7487;SDS011;3785;52.260;4.728;2022-07-24T19:13:09;3.47;;;1.63;;
7487;SDS011;3785;52.260;4.728;2022-07-24T19:16:29;3.03;;;1.95;;
7487;SDS011;3785;52.260;4.728;2022-07-24T19:19:50;2.72;;;1.70;;
7487;SDS011;3785;52.260;4.728;2022-07-24T19:23:11;4.38;;;1.80;;
7487;SDS011;3785;52.260;4.728;2022-07-24T19:26:32;2.53;;;1.48;;
7487;SDS011;3785;52.260;4.728;2022-07-24T19:29:53;1.85;;;1.33;;
7487;SDS011;3785;52.260;4.728;2022-07-24T19:33:13;2.78;;;1.50;;
7487;SDS011;3785;52.260;4.728;2022-07-24T19:36:34;2.15;;;1.65;;
7487;SDS011;3785;52.260;4.728;2022-07-24T19:39:54;2.33;;;1.58;;
7487;SDS011;3785;52.260;4.728;2022-07-24T19:43:15;2.17;;;1.60;;
7487;SDS011;3785;52.260;4.728;2022-07-24T19:46:35;4.32;;;1.75;;
7487;SDS011;3785;52.260;4.728;2022-07-24T19:49:56;3.08;;;1.80;;
7487;SDS011;3785;52.260;4.728;2022-07-24T19:53:17;2.40;;;1.60;;
7487;SDS011;3785;52.260;4.728;2022-07-24T19:56:38;1.92;;;1.40;;
7487;SDS011;3785;52.260;4.728;2022-07-24T19:59:58;3.88;;;2.40;;
7487;SDS011;3785;52.260;4.728;2022-07-24T20:03:19;4.80;;;2.08;;
7487;SDS011;3785;52.260;4.728;2022-07-24T20:06:39;2.63;;;2.08;;
7487;SDS011;3785;52.260;4.728;2022-07-24T20:10:00;3.28;;;2.08;;
7487;SDS011;3785;52.260;4.728;2022-07-24T20:13:21;3.17;;;2.05;;
7487;SDS011;3785;52.260;4.728;2022-07-24T20:16:42;3.42;;;2.22;;
7487;SDS011;3785;52.260;4.728;2022-07-24T20:20:02;2.80;;;1.70;;
7487;SDS011;3785;52.260;4.728;2022-07-24T20:23:23;2.42;;;1.90;;
7487;SDS011;3785;52.260;4.728;2022-07-24T20:26:43;3.47;;;1.90;;
7487;SDS011;3785;52.260;4.728;2022-07-24T20:30:04;3.08;;;1.83;;
7487;SDS011;3785;52.260;4.728;2022-07-24T20:33:25;2.58;;;1.77;;
7487;SDS011;3785;52.260;4.728;2022-07-24T20:36:46;3.58;;;1.88;;
7487;SDS011;3785;52.260;4.728;2022-07-24T20:40:06;2.63;;;1.70;;
7487;SDS011;3785;52.260;4.728;2022-07-24T20:43:28;3.17;;;2.10;;
7487;SDS011;3785;52.260;4.728;2022-07-24T20:46:48;4.05;;;2.10;;
7487;SDS011;3785;52.260;4.728;2022-07-24T20:50:09;2.47;;;1.80;;
7487;SDS011;3785;52.260;4.728;2022-07-24T20:53:30;3.13;;;1.90;;
7487;SDS011;3785;52.260;4.728;2022-07-24T20:56:50;2.70;;;1.90;;
7487;SDS011;3785;52.260;4.728;2022-07-24T21:00:11;2.80;;;2.00;;
7487;SDS011;3785;52.260;4.728;2022-07-24T21:03:32;5.03;;;2.35;;
7487;SDS011;3785;52.260;4.728;2022-07-24T21:06:52;3.38;;;2.22;;
7487;SDS011;3785;52.260;4.728;2022-07-24T21:10:13;3.80;;;2.28;;